Time;durP1;ratioP1;P1;durP2;ratioP2;P2;SDS_P1;SDS_P2;PMS_P1;PMS_P2;Temp;Humidity;BMP_temperature;BMP_pressure;BME280_temperature;BME280_humidity;BME280_pressure;Samples;Min_cycle;Max_cycle;Signal;HPM_P1;HPM_P2
2023/01/04 00:01:14;;;;;;;12.82;7.32;;;22.90;55.20;;;;;;5021532;28;20044;-64
2023/01/04 00:03:40;;;;;;;12.75;7.43;;;22.90;55.10;;;;;;5017422;28;20033;-65
2023/01/04 00:06:08;;;;;;;12.02;7.43;;;23.00;55.20;;;;;;5019788;28;20103;-66
2023/01/04 00:08:34;;;;;;;12.52;6.85;;;23.00;55.10;;;;;;5021118;28;20453;-67
2023/01/04 00:11:00;;;;;;;12.25;7.20;;;23.00;55.10;;;;;;5020570;28;20060;-65
2023/01/04 00:13:26;;;;;;;10.57;6.78;;;23.00;55.10;;;;;;5018773;28;20021;-66
2023/01/04 00:15:52;;;;;;;10.98;6.80;;;23.00;55.00;;;;;;5018945;28;20688;-64
2023/01/04 00:18:18;;;;;;;12.05;7.32;;;23.00;55.00;;;;;;5021442;28;20029;-65
2023/01/04 00:20:43;;;;;;;11.32;7.22;;;23.00;54.90;;;;;;5022856;28;20036;-65
2023/01/04 00:23:09;;;;;;;11.00;7.10;;;23.00;55.00;;;;;;5018077;28;20046;-66
2023/01/04 00:25:37;;;;;;;10.95;6.55;;;23.00;54.90;;;;;;5018481;28;20022;-65
2023/01/04 00:28:03;;;;;;;11.85;6.70;;;23.00;54.90;;;;;;5017701;28;20018;-65
2023/01/04 00:30:29;;;;;;;10.88;6.68;;;23.00;54.90;;;;;;5017261;28;20041;-65
2023/01/04 00:32:56;;;;;;;10.27;6.32;;;23.00;54.90;;;;;;5018292;28;20392;-66
2023/01/04 00:35:22;;;;;;;10.05;6.22;;;23.00;54.90;;;;;;5019867;28;20030;-66
2023/01/04 00:37:48;;;;;;;8.63;5.93;;;23.00;54.80;;;;;;5021208;28;20055;-65
2023/01/04 00:40:13;;;;;;;11.05;6.32;;;23.00;54.80;;;;;;5020387;28;20160;-66
2023/01/04 00:42:39;;;;;;;9.73;6.18;;;23.00;55.30;;;;;;5017356;28;20042;-66
2023/01/04 00:45:05;;;;;;;10.38;6.20;;;23.00;54.80;;;;;;5020494;28;20026;-66
2023/01/04 00:47:31;;;;;;;9.90;6.40;;;23.10;54.80;;;;;;5018631;28;20473;-66
2023/01/04 00:49:56;;;;;;;10.40;6.40;;;23.00;54.80;;;;;;5017736;28;20100;-67
2023/01/04 00:52:22;;;;;;;9.82;6.15;;;23.00;54.80;;;;;;5016855;28;20480;-65
2023/01/04 00:54:47;;;;;;;11.18;6.40;;;23.00;54.80;;;;;;5018470;28;20030;-66
2023/01/04 00:57:13;;;;;;;9.60;5.75;;;23.00;54.70;;;;;;5018354;28;20095;-66
2023/01/04 00:59:38;;;;;;;9.48;6.13;;;23.10;54.70;;;;;;5022860;28;20091;-65
2023/01/04 01:02:04;;;;;;;9.13;5.78;;;23.10;54.70;;;;;;5021922;28;20030;-64
2023/01/04 01:04:30;;;;;;;9.15;5.45;;;23.10;54.70;;;;;;5019427;28;20036;-64
2023/01/04 01:06:56;;;;;;;9.40;5.65;;;23.00;54.70;;;;;;5022026;28;20385;-65
2023/01/04 01:09:21;;;;;;;8.55;5.63;;;23.00;54.70;;;;;;5017794;28;20026;-65
2023/01/04 01:11:47;;;;;;;9.32;5.47;;;23.00;54.70;;;;;;5017873;28;20044;-64
2023/01/04 01:14:17;;;;;;;9.73;5.82;;;23.00;54.80;;;;;;5019465;28;20401;-65
2023/01/04 01:16:44;;;;;;;8.10;4.93;;;23.00;54.70;;;;;;5015050;28;20030;-65
2023/01/04 01:19:09;;;;;;;8.35;5.00;;;23.00;54.80;;;;;;5026432;28;20064;-65
2023/01/04 01:21:36;;;;;;;9.00;5.82;;;23.00;54.80;;;;;;5020766;28;20061;-64
2023/01/04 01:24:02;;;;;;;9.93;6.05;;;23.00;54.80;;;;;;5017276;28;20049;-65
2023/01/04 01:26:28;;;;;;;7.80;5.25;;;22.90;54.70;;;;;;5018415;28;20063;-65
2023/01/04 01:28:53;;;;;;;9.05;5.85;;;22.90;54.80;;;;;;5016387;28;20412;-65
2023/01/04 01:31:25;;;;;;;7.60;4.88;;;22.90;54.80;;;;;;5019089;28;20033;-64
2023/01/04 01:33:52;;;;;;;8.60;5.15;;;22.90;54.80;;;;;;5016576;28;20389;-64
2023/01/04 01:36:20;;;;;;;7.63;5.07;;;22.80;54.80;;;;;;5019872;28;20030;-65
2023/01/04 01:38:46;;;;;;;7.63;5.00;;;22.90;54.90;;;;;;5017647;28;20446;-65
2023/01/04 01:41:29;;;;;;;7.68;5.10;;;22.80;54.90;;;;;;5023986;28;20153;-65
2023/01/04 01:43:58;;;;;;;7.15;4.97;;;22.80;54.90;;;;;;5021735;28;20087;-64
2023/01/04 01:46:42;;;;;;;8.52;5.53;;;22.80;55.00;;;;;;5021702;28;20029;-65
2023/01/04 01:49:20;;;;;;;6.72;4.40;;;22.70;55.00;;;;;;5017815;28;20037;-64
2023/01/04 01:51:46;;;;;;;8.20;4.93;;;22.70;55.00;;;;;;5018814;28;20045;-64
2023/01/04 01:54:16;;;;;;;7.00;4.32;;;22.70;55.00;;;;;;5020403;28;20365;-64
2023/01/04 01:56:44;;;;;;;6.78;4.32;;;22.70;55.10;;;;;;5032448;28;20029;-64
2023/01/04 01:59:12;;;;;;;6.63;4.32;;;22.70;55.10;;;;;;5019748;28;20033;-64
2023/01/04 02:01:38;;;;;;;7.05;4.68;;;22.60;55.10;;;;;;5023647;28;20026;-64
2023/01/04 02:04:04;;;;;;;8.35;4.50;;;22.60;55.20;;;;;;5021050;28;20057;-65
2023/01/04 02:06:34;;;;;;;6.75;4.00;;;22.60;55.20;;;;;;5020103;28;20065;-65
2023/01/04 02:09:01;;;;;;;6.80;4.22;;;22.60;55.80;;;;;;5019226;28;20064;-65
2023/01/04 02:11:27;;;;;;;6.80;4.20;;;22.60;55.30;;;;;;5020578;28;20468;-64
2023/01/04 02:16:47;;;;;;;6.70;4.30;;;22.50;55.30;;;;;;5024129;28;20175;-65
2023/01/04 02:19:50;;;;;;;6.68;4.60;;;22.50;55.30;;;;;;5022382;28;20038;-65
2023/01/04 02:22:53;;;;;;;6.38;4.05;;;22.50;55.40;;;;;;5022391;28;20435;-64
2023/01/04 02:25:46;;;;;;;6.13;3.92;;;22.50;55.40;;;;;;5039729;28;20045;-64
2023/01/04 02:28:59;;;;;;;5.97;3.78;;;22.40;55.40;;;;;;5022222;28;20029;-64
2023/01/04 02:31:50;;;;;;;6.75;4.03;;;22.40;55.40;;;;;;5023545;28;20456;-65
2023/01/04 02:34:25;;;;;;;5.78;3.85;;;22.40;55.40;;;;;;5024576;28;20213;-64
2023/01/04 02:37:17;;;;;;;5.93;3.95;;;22.30;55.40;;;;;;5018886;28;20401;-65
2023/01/04 02:40:22;;;;;;;5.53;3.70;;;22.30;55.50;;;;;;5019760;28;20050;-64
2023/01/04 02:45:45;;;;;;;5.68;3.80;;;22.30;55.60;;;;;;5018611;28;20121;-64
2023/01/04 02:50:59;;;;;;;5.88;3.75;;;22.20;55.60;;;;;;5021699;28;20072;-64
2023/01/04 02:53:35;;;;;;;5.63;3.60;;;22.20;55.60;;;;;;5018158;28;20432;-65
2023/01/04 02:56:06;;;;;;;6.30;3.70;;;22.20;55.60;;;;;;5020450;28;20087;-65
2023/01/04 02:58:39;;;;;;;6.55;3.90;;;22.20;55.70;;;;;;5022213;28;20029;-64
2023/01/04 03:07:11;;;;;;;;;;;22.10;56.20;;;;;;5021083;28;20103;-65
2023/01/04 03:09:40;;;;;;;5.53;3.50;;;22.20;55.80;;;;;;5020796;28;19905;-64
2023/01/04 03:12:30;;;;;;;5.32;3.42;;;22.10;55.80;;;;;;5020604;28;20034;-65
2023/01/04 03:15:13;;;;;;;5.28;3.30;;;22.10;55.80;;;;;;5021482;28;20464;-64
2023/01/04 03:17:58;;;;;;;5.65;3.42;;;22.10;55.90;;;;;;5021590;28;20033;-65
2023/01/04 03:20:28;;;;;;;5.90;3.60;;;22.10;55.90;;;;;;5019216;28;20037;-64
2023/01/04 03:37:25;;;;;;;5.65;3.35;;;22.00;56.10;;;;;;5023836;28;20028;-64
2023/01/04 03:49:25;;;;;;;5.15;3.35;;;21.90;56.20;;;;;;5020672;28;20075;-65
2023/01/04 03:51:56;;;;;;;4.82;3.28;;;21.90;56.20;;;;;;5017254;28;20056;-64
2023/01/04 03:54:30;;;;;;;4.93;2.97;;;21.80;56.70;;;;;;5017790;28;20022;-64
2023/01/04 03:56:57;;;;;;;4.40;2.92;;;21.80;56.20;;;;;;5021678;28;20022;-64
2023/01/04 03:59:23;;;;;;;5.10;3.20;;;21.80;56.30;;;;;;5015725;28;20120;-66
2023/01/04 04:01:49;;;;;;;3.60;2.63;;;21.80;56.30;;;;;;5017002;28;20408;-64
2023/01/04 04:09:42;;;;;;;4.35;2.78;;;21.80;56.40;;;;;;5021062;28;20361;-65
2023/01/04 04:12:08;;;;;;;4.47;2.80;;;21.80;56.40;;;;;;5020295;28;20022;-65
2023/01/04 04:14:34;;;;;;;4.63;2.90;;;21.70;56.40;;;;;;5017288;28;20021;-64
2023/01/04 04:16:59;;;;;;;4.15;2.80;;;21.70;56.50;;;;;;5016425;28;20029;-64
2023/01/04 04:19:25;;;;;;;4.20;2.60;;;21.70;56.50;;;;;;5015549;28;20113;-64
2023/01/04 04:21:51;;;;;;;4.03;2.70;;;21.70;56.50;;;;;;5019702;28;20119;-65
2023/01/04 04:24:19;;;;;;;4.20;2.65;;;21.70;56.50;;;;;;5019883;28;20045;-65
2023/01/04 04:26:45;;;;;;;3.63;2.60;;;21.70;56.60;;;;;;5032318;28;20037;-65
2023/01/04 04:29:12;;;;;;;4.00;2.60;;;21.70;57.10;;;;;;5016996;28;20069;-65
2023/01/04 04:31:38;;;;;;;3.95;2.80;;;21.70;56.60;;;;;;5017510;28;20476;-64
2023/01/04 04:34:03;;;;;;;4.45;2.88;;;21.70;56.60;;;;;;5019174;28;20419;-65
2023/01/04 04:36:29;;;;;;;3.60;2.47;;;21.70;56.60;;;;;;5021450;28;20033;-64
2023/01/04 04:38:55;;;;;;;4.32;2.50;;;21.60;56.60;;;;;;5018671;28;20576;-64
2023/01/04 04:41:39;;;;;;;4.32;2.55;;;21.60;57.10;;;;;;5019837;28;20029;-65
2023/01/04 04:44:11;;;;;;;4.00;2.30;;;21.60;56.70;;;;;;5016878;28;20397;-65
2023/01/04 04:46:38;;;;;;;4.43;2.67;;;21.60;56.70;;;;;;5018657;28;20387;-64
2023/01/04 04:49:04;;;;;;;3.92;2.67;;;21.60;56.70;;;;;;5018421;28;20495;-65
2023/01/04 04:51:30;;;;;;;3.85;2.40;;;21.60;56.70;;;;;;5018893;28;20342;-64
2023/01/04 04:53:56;;;;;;;4.57;2.72;;;21.60;56.70;;;;;;5017009;28;20029;-64
2023/01/04 04:56:22;;;;;;;4.00;2.50;;;21.60;56.80;;;;;;5016890;28;20152;-64
2023/01/04 04:58:48;;;;;;;3.60;2.50;;;21.60;56.80;;;;;;5020599;28;20104;-65
2023/01/04 05:01:14;;;;;;;4.18;2.53;;;21.50;56.70;;;;;;5021485;28;20033;-64
2023/01/04 05:03:40;;;;;;;3.92;2.47;;;21.60;56.80;;;;;;5017617;28;20018;-64
2023/01/04 05:06:06;;;;;;;4.05;2.35;;;21.50;56.70;;;;;;5021965;28;20098;-65
2023/01/04 05:08:31;;;;;;;4.72;2.78;;;21.50;56.80;;;;;;5018462;28;20026;-65
2023/01/04 05:10:57;;;;;;;3.97;2.40;;;21.50;56.80;;;;;;5023905;28;20025;-64
2023/01/04 05:13:23;;;;;;;3.65;2.50;;;21.50;56.80;;;;;;5023028;28;20017;-64
2023/01/04 05:15:51;;;;;;;3.33;2.38;;;21.50;56.80;;;;;;5023177;28;20473;-65
2023/01/04 05:18:19;;;;;;;3.83;2.50;;;21.50;56.80;;;;;;5020408;28;20025;-64
2023/01/04 05:20:45;;;;;;;4.45;2.70;;;21.50;56.80;;;;;;5028286;28;20033;-65
2023/01/04 05:23:13;;;;;;;4.30;2.63;;;21.50;56.80;;;;;;5022833;28;20047;-65
2023/01/04 05:25:38;;;;;;;3.83;2.30;;;21.50;56.80;;;;;;5022106;28;20183;-65
2023/01/04 05:28:06;;;;;;;3.70;2.30;;;21.50;56.70;;;;;;5019941;28;20129;-64
2023/01/04 05:30:50;;;;;;;4.43;2.40;;;21.50;56.80;;;;;;5021414;28;20030;-64
2023/01/04 05:33:18;;;;;;;3.33;2.15;;;21.50;56.80;;;;;;5022889;28;20085;-64
2023/01/04 05:35:43;;;;;;;3.60;2.15;;;21.50;56.80;;;;;;5022248;28;20413;-65
2023/01/04 05:38:09;;;;;;;4.15;2.60;;;21.50;56.80;;;;;;5024030;28;20057;-64
2023/01/04 05:40:35;;;;;;;3.85;2.33;;;21.50;56.80;;;;;;5022498;28;20037;-65
2023/01/04 05:43:00;;;;;;;3.55;2.20;;;21.50;56.90;;;;;;5022254;28;20966;-65
2023/01/04 05:45:27;;;;;;;3.10;2.17;;;21.40;56.80;;;;;;5025252;28;20037;-64
2023/01/04 05:47:53;;;;;;;3.33;2.10;;;21.50;56.80;;;;;;5022522;28;20021;-65
2023/01/04 05:50:20;;;;;;;3.95;2.30;;;21.50;56.80;;;;;;5020697;28;20465;-64
2023/01/04 05:52:46;;;;;;;3.28;2.17;;;21.40;56.80;;;;;;5020999;28;20026;-65
2023/01/04 05:55:12;;;;;;;3.45;2.20;;;21.40;56.80;;;;;;5021802;28;20083;-65
2023/01/04 05:57:37;;;;;;;3.05;1.98;;;21.40;56.80;;;;;;5020790;28;20037;-64
2023/01/04 06:00:06;;;;;;;3.33;2.30;;;21.40;57.30;;;;;;5019349;28;20094;-65
2023/01/04 06:02:32;;;;;;;4.13;2.17;;;21.40;56.90;;;;;;5017851;28;20037;-64
2023/01/04 06:04:59;;;;;;;3.20;2.10;;;21.40;56.90;;;;;;5022759;28;20428;-64
2023/01/04 06:07:25;;;;;;;3.25;1.83;;;21.40;56.80;;;;;;5019357;28;20079;-64
2023/01/04 06:09:51;;;;;;;3.00;2.10;;;21.40;56.90;;;;;;5019206;28;20481;-65
2023/01/04 06:12:16;;;;;;;3.58;2.30;;;21.40;56.90;;;;;;5018268;28;20080;-65
2023/01/04 06:14:42;;;;;;;3.20;2.20;;;21.40;56.90;;;;;;5021624;28;20369;-64
2023/01/04 06:17:07;;;;;;;3.47;2.15;;;21.40;56.90;;;;;;5021863;28;20037;-64
2023/01/04 06:19:33;;;;;;;3.20;2.00;;;21.40;56.90;;;;;;5020284;28;20038;-64
2023/01/04 06:21:59;;;;;;;3.00;1.90;;;21.40;56.90;;;;;;5018947;28;20026;-65
2023/01/04 06:24:25;;;;;;;3.30;2.10;;;21.40;56.90;;;;;;5024600;28;20496;-65
2023/01/04 06:26:50;;;;;;;2.95;1.98;;;21.30;56.80;;;;;;5021855;28;20034;-65
2023/01/04 06:29:16;;;;;;;2.70;1.88;;;21.30;56.90;;;;;;5021155;28;20029;-64
2023/01/04 06:31:42;;;;;;;3.22;2.10;;;21.30;56.80;;;;;;5020523;28;20056;-64
2023/01/04 06:34:10;;;;;;;2.92;1.88;;;21.30;56.80;;;;;;5019892;28;20072;-64
2023/01/04 06:36:36;;;;;;;3.30;2.10;;;21.30;56.90;;;;;;5025483;28;20550;-64
2023/01/04 06:39:02;;;;;;;3.03;2.03;;;21.30;56.90;;;;;;5021157;28;20030;-64
2023/01/04 06:41:27;;;;;;;3.67;2.20;;;21.30;56.90;;;;;;5020015;28;20029;-65
2023/01/04 06:43:53;;;;;;;3.35;1.98;;;21.30;56.90;;;;;;5022230;28;20381;-64
2023/01/04 06:46:18;;;;;;;2.97;1.75;;;21.30;57.00;;;;;;5017638;28;20116;-65
2023/01/04 06:48:44;;;;;;;2.85;1.95;;;21.30;57.00;;;;;;5027129;28;20423;-64
2023/01/04 06:51:10;;;;;;;3.20;1.90;;;21.30;57.00;;;;;;5022360;28;20045;-65
2023/01/04 06:53:36;;;;;;;3.10;1.70;;;21.30;57.00;;;;;;5020200;28;20077;-64
2023/01/04 06:56:02;;;;;;;2.80;1.80;;;21.30;57.00;;;;;;5023118;28;20402;-64
2023/01/04 06:58:27;;;;;;;2.58;1.80;;;21.30;57.00;;;;;;5020127;28;20493;-64
2023/01/04 07:00:54;;;;;;;3.53;1.92;;;21.30;57.00;;;;;;5019347;28;20037;-65
2023/01/04 07:03:19;;;;;;;2.72;1.60;;;21.30;57.00;;;;;;5020768;28;20029;-64
2023/01/04 07:05:45;;;;;;;3.10;2.13;;;21.30;57.00;;;;;;5026168;28;20032;-65
2023/01/04 07:08:12;;;;;;;2.90;1.80;;;21.30;57.00;;;;;;5021134;28;20033;-64
2023/01/04 07:10:38;;;;;;;2.60;1.67;;;21.30;57.00;;;;;;5018287;28;20045;-65
2023/01/04 07:13:04;;;;;;;2.88;1.80;;;21.20;57.00;;;;;;5018863;28;20029;-64
2023/01/04 07:15:30;;;;;;;2.92;1.80;;;21.20;57.00;;;;;;5015874;28;20505;-64
2023/01/04 07:17:55;;;;;;;2.78;1.70;;;21.20;57.00;;;;;;5018448;28;20096;-65
2023/01/04 07:20:21;;;;;;;2.92;1.52;;;21.20;57.00;;;;;;5018747;28;20040;-64
2023/01/04 07:22:47;;;;;;;2.97;1.90;;;21.20;57.00;;;;;;5019283;28;20100;-65
2023/01/04 07:25:12;;;;;;;2.90;1.80;;;21.20;57.10;;;;;;5016287;28;20488;-65
2023/01/04 07:27:38;;;;;;;2.53;1.58;;;21.20;57.00;;;;;;5018297;28;20113;-64
2023/01/04 07:30:04;;;;;;;2.53;1.70;;;21.20;57.10;;;;;;5018286;28;20486;-64
2023/01/04 07:32:30;;;;;;;2.35;1.65;;;21.20;57.10;;;;;;5019199;28;20026;-64
2023/01/04 07:34:55;;;;;;;2.15;1.40;;;21.20;57.00;;;;;;5014428;28;20030;-65
2023/01/04 07:37:21;;;;;;;2.33;1.50;;;21.20;57.10;;;;;;5023083;28;20380;-64
2023/01/04 07:39:47;;;;;;;2.40;1.70;;;21.20;57.10;;;;;;5017926;28;20083;-65
2023/01/04 07:42:13;;;;;;;2.83;1.73;;;21.20;57.10;;;;;;5022473;28;20033;-64
2023/01/04 07:44:39;;;;;;;2.72;1.58;;;21.20;57.10;;;;;;5018031;28;20083;-65
2023/01/04 07:47:04;;;;;;;2.38;1.60;;;21.20;57.10;;;;;;5019497;28;20072;-65
2023/01/04 07:49:30;;;;;;;2.58;1.50;;;21.10;57.00;;;;;;5018677;28;20025;-64
2023/01/04 07:51:55;;;;;;;2.88;1.70;;;21.20;57.10;;;;;;5019633;28;20030;-65
2023/01/04 07:54:23;;;;;;;2.70;1.67;;;21.20;57.10;;;;;;5019461;28;20116;-64
2023/01/04 07:56:49;;;;;;;2.63;1.50;;;21.10;57.00;;;;;;5018744;28;20021;-65
2023/01/04 07:59:17;;;;;;;2.33;1.58;;;21.20;57.10;;;;;;5020032;28;20029;-64
2023/01/04 08:01:42;;;;;;;2.65;1.50;;;21.20;57.10;;;;;;5019562;28;20404;-64
2023/01/04 08:04:09;;;;;;;2.63;1.60;;;21.10;57.10;;;;;;5021581;28;20041;-65
2023/01/04 08:06:35;;;;;;;2.33;1.55;;;21.10;57.10;;;;;;5017022;28;20152;-64
2023/01/04 08:09:03;;;;;;;2.47;1.50;;;21.10;57.10;;;;;;5017230;28;20481;-65
2023/01/04 08:11:28;;;;;;;2.22;1.50;;;21.10;57.10;;;;;;5023875;28;20026;-65
2023/01/04 08:13:54;;;;;;;3.45;1.60;;;21.10;57.10;;;;;;5018303;28;20041;-64
2023/01/04 08:16:26;;;;;;;2.38;1.50;;;21.10;57.10;;;;;;5024320;28;20633;-65
2023/01/04 08:18:57;;;;;;;1.65;1.20;;;21.10;57.20;;;;;;5023831;28;20472;-64
2023/01/04 08:21:24;;;;;;;2.65;1.60;;;21.10;57.20;;;;;;5020768;28;20026;-64
2023/01/04 08:23:51;;;;;;;2.20;1.33;;;21.10;57.20;;;;;;5020226;28;20396;-65
2023/01/04 08:26:17;;;;;;;2.85;1.52;;;21.10;57.20;;;;;;5021792;28;20061;-66
2023/01/04 08:28:43;;;;;;;1.85;1.20;;;21.10;57.20;;;;;;5022603;28;20353;-64
2023/01/04 08:31:12;;;;;;;1.80;1.20;;;21.10;57.20;;;;;;5019869;28;20064;-65
2023/01/04 08:33:39;;;;;;;;;;;21.10;57.20;;;;;;5017821;28;20045;-64
2023/01/04 08:36:07;;;;;;;1.85;1.10;;;21.10;57.20;;;;;;5017446;28;19912;-64
2023/01/04 08:38:33;;;;;;;1.90;1.38;;;21.10;57.20;;;;;;5019789;28;20388;-64
2023/01/04 08:40:59;;;;;;;2.13;1.33;;;21.10;57.20;;;;;;5015955;28;20029;-64
2023/01/04 08:43:24;;;;;;;1.98;1.27;;;21.10;57.30;;;;;;5017855;28;20064;-65
2023/01/04 08:45:50;;;;;;;1.92;1.25;;;21.10;57.30;;;;;;5018163;28;20088;-65
2023/01/04 08:48:15;;;;;;;2.38;1.30;;;21.00;57.20;;;;;;5019422;28;20024;-64
2023/01/04 08:50:41;;;;;;;2.65;1.38;;;21.00;57.20;;;;;;5019535;28;20018;-65
2023/01/04 08:53:07;;;;;;;2.45;1.30;;;21.10;57.30;;;;;;5021774;28;20045;-65
2023/01/04 08:55:32;;;;;;;2.13;1.45;;;21.00;57.20;;;;;;5020940;28;20366;-64
2023/01/04 08:58:02;;;;;;;1.73;1.20;;;21.00;57.30;;;;;;5015829;28;20034;-65
2023/01/04 09:00:28;;;;;;;2.22;1.20;;;21.00;57.20;;;;;;5031800;28;20402;-64
2023/01/04 09:02:54;;;;;;;2.67;1.40;;;21.00;57.20;;;;;;5017689;28;20037;-64
2023/01/04 09:05:20;;;;;;;2.08;1.23;;;21.00;57.20;;;;;;5019034;28;20037;-64
2023/01/04 09:07:45;;;;;;;1.70;1.10;;;21.00;57.20;;;;;;5018928;28;20033;-64
2023/01/04 09:10:11;;;;;;;1.98;1.30;;;21.00;57.30;;;;;;5017355;28;20473;-65
2023/01/04 09:12:37;;;;;;;1.80;1.30;;;21.00;57.20;;;;;;5016625;28;20118;-64
2023/01/04 09:15:03;;;;;;;2.22;1.40;;;21.00;57.20;;;;;;5017172;28;20026;-64
2023/01/04 09:17:28;;;;;;;1.77;1.10;;;21.00;57.10;;;;;;5017366;28;20105;-63
2023/01/04 09:19:54;;;;;;;2.00;1.23;;;21.00;57.10;;;;;;5020603;28;20030;-64
2023/01/04 09:22:20;;;;;;;2.00;1.30;;;21.00;57.20;;;;;;5018673;28;20030;-64
2023/01/04 09:24:45;;;;;;;1.92;1.25;;;21.00;57.10;;;;;;5019028;28;20029;-64
2023/01/04 09:27:11;;;;;;;1.95;1.20;;;21.00;57.60;;;;;;5018711;28;20029;-64
2023/01/04 09:29:36;;;;;;;1.67;1.05;;;21.00;57.20;;;;;;5019888;28;20041;-64
2023/01/04 09:32:02;;;;;;;1.80;1.20;;;21.00;57.10;;;;;;5022509;28;20072;-64
2023/01/04 09:34:28;;;;;;;1.95;1.25;;;21.00;57.20;;;;;;5022509;28;20029;-64
2023/01/04 09:36:53;;;;;;;3.00;1.38;;;21.00;57.20;;;;;;5019032;28;20040;-64
2023/01/04 09:39:20;;;;;;;2.10;1.17;;;20.90;57.00;;;;;;5020779;28;20037;-65
2023/01/04 09:41:51;;;;;;;2.08;1.30;;;21.00;57.20;;;;;;5019436;28;20029;-64
2023/01/04 09:44:44;;;;;;;1.88;1.25;;;20.90;57.10;;;;;;5017748;28;20606;-64
2023/01/04 09:47:41;;;;;;;2.22;1.27;;;20.90;57.20;;;;;;5014950;28;20033;-64
2023/01/04 09:50:43;;;;;;;1.88;1.30;;;20.90;57.20;;;;;;5018183;28;20437;-65
2023/01/04 09:53:27;;;;;;;1.33;1.00;;;20.90;57.10;;;;;;5018063;28;20120;-64
2023/01/04 09:56:00;;;;;;;1.73;1.15;;;20.90;57.20;;;;;;5018509;28;20033;-64
2023/01/04 09:58:33;;;;;;;1.42;0.90;;;20.90;57.60;;;;;;5024885;28;20029;-64
2023/01/04 10:01:03;;;;;;;1.65;1.10;;;20.90;57.10;;;;;;5019331;28;20021;-64
2023/01/04 10:03:35;;;;;;;1.55;1.10;;;20.90;57.50;;;;;;5025243;28;20029;-64
2023/01/04 10:06:02;;;;;;;1.70;1.17;;;20.90;57.10;;;;;;5021039;28;20032;-64
2023/01/04 10:08:30;;;;;;;2.15;1.27;;;20.90;57.10;;;;;;5024001;28;20329;-64
2023/01/04 10:11:04;;;;;;;2.13;1.27;;;20.90;57.00;;;;;;5020102;28;20017;-65
2023/01/04 10:13:45;;;;;;;1.95;1.20;;;20.90;57.00;;;;;;5023773;28;20033;-64
2023/01/04 10:16:48;;;;;;;1.33;1.08;;;20.90;57.00;;;;;;5025089;28;20079;-64
2023/01/04 10:19:43;;;;;;;1.92;1.25;;;20.90;57.10;;;;;;5021968;28;20025;-64
2023/01/04 10:22:34;;;;;;;1.50;1.02;;;20.90;57.10;;;;;;5021368;28;20473;-64
2023/01/04 10:25:30;;;;;;;1.80;1.10;;;20.90;57.20;;;;;;5019152;28;20088;-64
2023/01/04 10:28:14;;;;;;;1.65;1.10;;;20.80;57.20;;;;;;5019189;28;20032;-64
2023/01/04 10:30:58;;;;;;;2.70;1.30;;;20.80;57.30;;;;;;5020439;28;20524;-65
2023/01/04 10:33:41;;;;;;;1.98;1.17;;;20.80;57.40;;;;;;5018451;28;20414;-65
2023/01/04 10:36:21;;;;;;;1.52;1.08;;;20.80;57.40;;;;;;5022162;28;20143;-64
2023/01/04 10:39:04;;;;;;;2.15;1.38;;;20.80;57.40;;;;;;5023360;28;20030;-64
2023/01/04 10:41:37;;;;;;;1.95;1.38;;;20.80;57.50;;;;;;5019033;28;20381;-65
2023/01/04 10:44:18;;;;;;;2.13;1.15;;;20.80;57.60;;;;;;5024368;28;20060;-64
2023/01/04 10:46:59;;;;;;;1.67;1.10;;;20.80;57.50;;;;;;5023754;28;20033;-64
2023/01/04 10:49:34;;;;;;;1.60;1.05;;;20.80;57.70;;;;;;5021803;28;20075;-65
2023/01/04 10:52:08;;;;;;;2.28;1.23;;;20.80;57.60;;;;;;5020763;28;20022;-65
2023/01/04 10:54:38;;;;;;;1.75;1.10;;;20.80;57.80;;;;;;5019360;28;20136;-64
2023/01/04 10:57:37;;;;;;;3.13;1.05;;;20.80;58.00;;;;;;5019203;28;20030;-65
2023/01/04 11:00:10;;;;;;;1.75;1.02;;;20.80;57.80;;;;;;5024343;28;20485;-64
2023/01/04 11:02:43;;;;;;;1.85;1.15;;;20.80;58.10;;;;;;5023002;28;20037;-64
2023/01/04 11:05:36;;;;;;;3.22;1.20;;;20.80;58.00;;;;;;5021039;28;20030;-64
2023/01/04 11:08:25;;;;;;;1.60;1.05;;;20.80;58.10;;;;;;5016570;28;20033;-64
2023/01/04 11:11:04;;;;;;;1.75;1.10;;;20.80;58.20;;;;;;5018119;28;20029;-64
2023/01/04 11:13:30;;;;;;;;;;;20.80;58.20;;;;;;5021021;28;20061;-64
2023/01/04 11:15:57;;;;;;;1.73;1.08;;;20.80;58.20;;;;;;5018319;28;19955;-64
2023/01/04 11:18:23;;;;;;;1.50;0.90;;;20.80;58.00;;;;;;5022219;28;20081;-64
2023/01/04 11:20:48;;;;;;;1.85;1.08;;;20.80;58.00;;;;;;5023904;28;20579;-65
2023/01/04 11:23:16;;;;;;;1.52;1.10;;;20.80;58.10;;;;;;5026789;28;20362;-65
2023/01/04 11:25:55;;;;;;;1.73;1.00;;;20.80;58.30;;;;;;5022807;28;20476;-66
2023/01/04 11:28:52;;;;;;;1.85;1.10;;;20.90;58.40;;;;;;5016848;28;20031;-65
2023/01/04 11:31:28;;;;;;;2.17;1.15;;;21.00;58.40;;;;;;5019066;28;20522;-65
2023/01/04 11:33:55;;;;;;;2.13;1.23;;;21.10;58.30;;;;;;5021964;28;20040;-64
2023/01/04 11:36:30;;;;;;;2.60;1.00;;;21.20;58.40;;;;;;5034738;28;20034;-65
2023/01/04 11:38:56;;;;;;;1.95;1.08;;;21.20;58.20;;;;;;5020519;28;20416;-65
2023/01/04 11:41:23;;;;;;;2.90;1.52;;;21.20;57.80;;;;;;5018025;28;20029;-65
2023/01/04 11:43:59;;;;;;;1.90;1.20;;;21.30;57.70;;;;;;5020141;28;20125;-66
2023/01/04 11:46:25;;;;;;;2.00;1.30;;;21.30;57.60;;;;;;5019888;28;20029;-65
2023/01/04 11:48:52;;;;;;;2.75;1.25;;;21.40;57.50;;;;;;5019280;28;20495;-65
2023/01/04 11:51:30;;;;;;;2.10;1.40;;;21.40;57.60;;;;;;5019603;28;20093;-65
2023/01/04 11:54:08;;;;;;;3.72;1.30;;;21.50;57.30;;;;;;5022766;28;20033;-65
2023/01/04 11:56:35;;;;;;;2.67;1.38;;;21.50;57.10;;;;;;5027564;28;20022;-65
2023/01/04 11:59:09;;;;;;;2.40;1.15;;;21.60;57.00;;;;;;5025334;28;20069;-64
2023/01/04 12:01:38;;;;;;;4.43;1.40;;;21.60;56.90;;;;;;5017843;28;20045;-64
2023/01/04 12:04:11;;;;;;;1.95;1.10;;;21.60;56.80;;;;;;5020590;28;20029;-66
2023/01/04 12:06:40;;;;;;;2.08;1.30;;;21.70;56.70;;;;;;5034861;28;20041;-65
2023/01/04 12:09:14;;;;;;;2.17;1.05;;;21.70;56.90;;;;;;5018982;28;20484;-66
2023/01/04 12:11:45;;;;;;;2.63;1.10;;;21.80;56.40;;;;;;5019718;28;20047;-65
2023/01/04 12:14:39;;;;;;;2.22;1.15;;;21.90;56.30;;;;;;5020084;28;20030;-65
2023/01/04 12:17:30;;;;;;;2.88;1.20;;;21.90;56.10;;;;;;5020246;28;20405;-65
2023/01/04 12:19:56;;;;;;;2.30;1.10;;;21.90;56.00;;;;;;5016545;28;20095;-67
2023/01/04 12:22:37;;;;;;;3.33;1.20;;;21.90;55.90;;;;;;5024780;28;20029;-65
2023/01/04 12:25:06;;;;;;;2.83;1.27;;;22.00;55.90;;;;;;5017576;28;20026;-65
2023/01/04 12:27:33;;;;;;;2.15;1.30;;;22.10;56.00;;;;;;5018918;28;20396;-65
2023/01/04 12:30:04;;;;;;;3.20;1.30;;;22.10;55.50;;;;;;5016272;28;20032;-65
2023/01/04 12:32:30;;;;;;;2.28;1.20;;;22.10;55.40;;;;;;5024453;28;20037;-64
2023/01/04 12:34:56;;;;;;;2.45;1.10;;;22.20;55.20;;;;;;5020522;28;20021;-65
2023/01/04 12:37:39;;;;;;;3.10;1.30;;;22.20;55.00;;;;;;5015320;28;20360;-65
2023/01/04 12:40:42;;;;;;;1.70;1.10;;;22.20;55.00;;;;;;5021427;28;20113;-65
2023/01/04 12:43:23;;;;;;;2.45;1.30;;;22.20;55.30;;;;;;5016798;28;20029;-65
2023/01/04 12:49:26;;;;;;;1.85;1.00;;;22.40;54.90;;;;;;5018390;28;20055;-65
2023/01/04 12:52:07;;;;;;;2.70;1.10;;;22.40;54.60;;;;;;5022717;28;20055;-65
2023/01/04 12:54:56;;;;;;;2.00;1.10;;;22.40;54.40;;;;;;5024791;28;20056;-65
2023/01/04 12:57:35;;;;;;;2.17;1.20;;;22.40;54.10;;;;;;5018181;28;20021;-65
2023/01/04 13:00:16;;;;;;;2.25;1.10;;;22.50;54.10;;;;;;5020826;28;20088;-65
2023/01/04 13:03:04;;;;;;;3.25;1.15;;;22.50;54.10;;;;;;5019732;28;20021;-65
2023/01/04 13:05:35;;;;;;;2.63;1.08;;;22.50;54.00;;;;;;5022014;28;20163;-65
2023/01/04 13:08:07;;;;;;;1.98;1.10;;;22.50;54.20;;;;;;5018686;28;20049;-65
2023/01/04 13:10:38;;;;;;;2.33;1.20;;;22.50;54.30;;;;;;5018792;28;20029;-65
2023/01/04 13:13:12;;;;;;;2.70;1.40;;;22.50;54.10;;;;;;5016733;28;20028;-66
2023/01/04 13:16:04;;;;;;;1.98;1.20;;;22.50;54.10;;;;;;5019283;28;20389;-65
2023/01/04 13:18:39;;;;;;;2.13;1.30;;;22.50;54.10;;;;;;5019373;28;20500;-66
2023/01/04 13:21:12;;;;;;;1.42;0.98;;;22.50;54.00;;;;;;5033852;28;20555;-68
2023/01/04 13:23:39;;;;;;;2.72;1.20;;;22.60;54.10;;;;;;5016628;28;20416;-67
2023/01/04 13:26:27;;;;;;;2.00;1.00;;;22.60;54.10;;;;;;5017699;28;20384;-64
2023/01/04 13:29:13;;;;;;;1.83;1.00;;;22.60;54.00;;;;;;5021209;28;20060;-65
2023/01/04 13:32:08;;;;;;;1.17;0.90;;;22.60;54.00;;;;;;5021620;28;20068;-65
2023/01/04 13:35:07;;;;;;;1.80;1.10;;;22.60;53.90;;;;;;5021562;28;20022;-66
2023/01/04 13:37:50;;;;;;;2.30;1.08;;;22.60;54.00;;;;;;5018537;28;20071;-65
2023/01/04 13:40:29;;;;;;;1.65;1.00;;;22.60;54.00;;;;;;5022317;28;20038;-65
2023/01/04 13:43:36;;;;;;;1.88;1.02;;;22.60;54.00;;;;;;5023364;28;20500;-66
2023/01/04 13:46:27;;;;;;;2.22;1.30;;;22.60;53.90;;;;;;5020288;28;20048;-65
2023/01/04 13:48:59;;;;;;;1.48;0.93;;;22.60;53.80;;;;;;5023476;28;20042;-67
2023/01/04 13:51:35;;;;;;;2.72;0.90;;;22.60;53.80;;;;;;5019071;28;20022;-66
2023/01/04 13:54:05;;;;;;;1.58;0.98;;;22.60;54.00;;;;;;5021340;28;20102;-65
2023/01/04 13:56:33;;;;;;;2.80;1.00;;;22.70;54.10;;;;;;5020027;28;20033;-66